Aviation Digital Data Service (ADDS)

Output produced by TAFs form (2201 UTC 19 June 2018)
found at http://www.aviationweather.gov/adds/tafs/
 
METAR text: KPDX 192153Z 28003KT 10SM FEW065 FEW150 SCT250 30/07 A2999 RMK AO2 SLP156 TCU DSNT E T03000072
Conditions at: KPDX (PORTLAND , OR, US) observed 2153 UTC 19 June 2018
Temperature: 30.0°C (86°F)
Dewpoint: 7.2°C (45°F) [RH = 24%]
Pressure (altimeter): 29.99 inches Hg (1015.7 mb)
[Sea-level pressure: 1015.6 mb]
Winds: from the W (280 degrees) at 3 MPH (3 knots; 1.6 m/s)
Visibility: 10 or more miles (16+ km)
Ceiling: at least 12,000 feet AGL
Clouds: few clouds at 6500 feet AGL
few clouds at 15000 feet AGL
scattered clouds at 25000 feet AGL
Weather: no significant weather observed at this time

Forecast for: KPDX (PORTLAND , OR, US)
Text: KPDX 192103Z 1921/2018 31006KT P6SM SKC
Forecast period: 2100 UTC 19 June 2018 to 0700 UTC 20 June 2018
Forecast type: FROM: standard forecast or significant change
Winds: from the NW (310 degrees) at 7 MPH (6 knots; 3.1 m/s)
Visibility: 6 or more miles (10+ km)
Clouds: clear skies
Weather: no significant weather forecast for this period
Text: FM200700 VRB02KT P6SM SCT050
Forecast period: 0700 to 1800 UTC 20 June 2018
Forecast type: FROM: standard forecast or significant change
Winds: variable direction winds at 2 MPH (2 knots; 1.0 m/s)
Visibility: 6 or more miles (10+ km)
Clouds: scattered clouds at 5000 feet AGL
Weather: no significant weather forecast for this period